Terminal Aerodrome Forecast
Issued by NWS

Home | Current Version | Previous Version | Text Only | Print | Product List | Glossary On
Versions: 1 2 3 4 5 6 7 8 9 10 11 12 13
000
FTUS45 KREV 212339
TAFCXP
TAF
KCXP 212339Z 2200/2224 VRB04KT P6SM SCT070
     FM221200 23010KT 5SM -SN SCT018 BKN030
     FM221500 25007KT 1/2SM SN FZFG SCT005 OVC014
     FM221800 34010KT P6SM VCSH FEW020 BKN035=

USA.gov is the U.S. government's official web portal to all federal, state and local government web resources and services.